sensor_id;sensor_type;location;lat;lon;timestamp;P1;durP1;ratioP1;P2;durP2;ratioP2
18304;SDS011;9278;52.156;21.048;2023-04-06T00:02:18;13.03;;;5.73;;
18304;SDS011;9278;52.156;21.048;2023-04-06T00:04:47;9.97;;;4.70;;
18304;SDS011;9278;52.156;21.048;2023-04-06T00:07:15;11.63;;;4.60;;
18304;SDS011;9278;52.156;21.048;2023-04-06T00:09:43;11.23;;;4.20;;
18304;SDS011;9278;52.156;21.048;2023-04-06T00:12:11;13.80;;;4.73;;
18304;SDS011;9278;52.156;21.048;2023-04-06T00:14:39;12.97;;;5.23;;
18304;SDS011;9278;52.156;21.048;2023-04-06T00:17:08;9.67;;;4.77;;
18304;SDS011;9278;52.156;21.048;2023-04-06T00:19:37;10.27;;;5.07;;
18304;SDS011;9278;52.156;21.048;2023-04-06T00:22:05;11.60;;;5.47;;
18304;SDS011;9278;52.156;21.048;2023-04-06T00:24:34;10.73;;;5.17;;
18304;SDS011;9278;52.156;21.048;2023-04-06T00:27:02;9.37;;;4.73;;
18304;SDS011;9278;52.156;21.048;2023-04-06T00:29:31;12.47;;;5.50;;
18304;SDS011;9278;52.156;21.048;2023-04-06T00:31:59;14.27;;;5.77;;
18304;SDS011;9278;52.156;21.048;2023-04-06T00:34:27;11.07;;;5.10;;
18304;SDS011;9278;52.156;21.048;2023-04-06T00:36:57;12.33;;;5.43;;
18304;SDS011;9278;52.156;21.048;2023-04-06T00:39:25;15.20;;;5.30;;
18304;SDS011;9278;52.156;21.048;2023-04-06T00:41:53;15.33;;;6.33;;
18304;SDS011;9278;52.156;21.048;2023-04-06T00:44:23;17.00;;;5.80;;
18304;SDS011;9278;52.156;21.048;2023-04-06T00:46:52;13.60;;;5.87;;
18304;SDS011;9278;52.156;21.048;2023-04-06T00:49:20;24.03;;;6.03;;
18304;SDS011;9278;52.156;21.048;2023-04-06T00:51:48;12.17;;;6.43;;
18304;SDS011;9278;52.156;21.048;2023-04-06T00:54:18;16.30;;;6.07;;
18304;SDS011;9278;52.156;21.048;2023-04-06T00:56:46;12.47;;;5.07;;
18304;SDS011;9278;52.156;21.048;2023-04-06T00:59:15;13.10;;;6.00;;
18304;SDS011;9278;52.156;21.048;2023-04-06T01:01:43;13.10;;;5.73;;
18304;SDS011;9278;52.156;21.048;2023-04-06T01:04:30;11.77;;;5.60;;
18304;SDS011;9278;52.156;21.048;2023-04-06T01:07:01;14.77;;;5.40;;
18304;SDS011;9278;52.156;21.048;2023-04-06T01:09:40;14.67;;;5.70;;
18304;SDS011;9278;52.156;21.048;2023-04-06T01:12:16;13.37;;;5.30;;
18304;SDS011;9278;52.156;21.048;2023-04-06T01:14:44;11.93;;;5.27;;
18304;SDS011;9278;52.156;21.048;2023-04-06T01:17:13;10.97;;;5.57;;
18304;SDS011;9278;52.156;21.048;2023-04-06T01:19:43;19.03;;;5.43;;
18304;SDS011;9278;52.156;21.048;2023-04-06T01:22:21;11.27;;;5.27;;
18304;SDS011;9278;52.156;21.048;2023-04-06T01:25:01;10.70;;;4.97;;
18304;SDS011;9278;52.156;21.048;2023-04-06T01:27:52;13.87;;;5.13;;
18304;SDS011;9278;52.156;21.048;2023-04-06T01:30:24;10.80;;;5.10;;
18304;SDS011;9278;52.156;21.048;2023-04-06T01:32:57;10.80;;;5.20;;
18304;SDS011;9278;52.156;21.048;2023-04-06T01:35:51;11.70;;;5.40;;
18304;SDS011;9278;52.156;21.048;2023-04-06T01:38:21;12.13;;;5.13;;
18304;SDS011;9278;52.156;21.048;2023-04-06T01:40:50;15.40;;;4.67;;
18304;SDS011;9278;52.156;21.048;2023-04-06T01:43:21;10.83;;;4.93;;
18304;SDS011;9278;52.156;21.048;2023-04-06T01:45:59;10.07;;;5.17;;
18304;SDS011;9278;52.156;21.048;2023-04-06T01:48:33;11.57;;;4.90;;
18304;SDS011;9278;52.156;21.048;2023-04-06T01:51:10;8.17;;;4.57;;
18304;SDS011;9278;52.156;21.048;2023-04-06T01:53:47;12.40;;;5.13;;
18304;SDS011;9278;52.156;21.048;2023-04-06T01:56:18;12.63;;;4.33;;
18304;SDS011;9278;52.156;21.048;2023-04-06T01:59:01;10.23;;;4.77;;
18304;SDS011;9278;52.156;21.048;2023-04-06T02:01:36;12.30;;;4.97;;
18304;SDS011;9278;52.156;21.048;2023-04-06T02:04:04;9.07;;;4.63;;
18304;SDS011;9278;52.156;21.048;2023-04-06T02:06:33;9.90;;;4.97;;
18304;SDS011;9278;52.156;21.048;2023-04-06T02:09:04;9.17;;;4.37;;
18304;SDS011;9278;52.156;21.048;2023-04-06T02:11:33;15.33;;;5.13;;
18304;SDS011;9278;52.156;21.048;2023-04-06T02:14:02;11.83;;;5.03;;
18304;SDS011;9278;52.156;21.048;2023-04-06T02:16:36;10.90;;;4.93;;
18304;SDS011;9278;52.156;21.048;2023-04-06T02:19:04;14.17;;;4.80;;
18304;SDS011;9278;52.156;21.048;2023-04-06T02:21:33;10.60;;;4.30;;
18304;SDS011;9278;52.156;21.048;2023-04-06T02:24:01;11.60;;;4.83;;
18304;SDS011;9278;52.156;21.048;2023-04-06T02:26:31;11.20;;;4.60;;
18304;SDS011;9278;52.156;21.048;2023-04-06T02:28:59;11.63;;;5.13;;
18304;SDS011;9278;52.156;21.048;2023-04-06T02:31:28;10.80;;;4.60;;
18304;SDS011;9278;52.156;21.048;2023-04-06T02:33:57;10.47;;;4.70;;
18304;SDS011;9278;52.156;21.048;2023-04-06T02:36:26;12.53;;;4.67;;
18304;SDS011;9278;52.156;21.048;2023-04-06T02:38:54;10.87;;;5.07;;
18304;SDS011;9278;52.156;21.048;2023-04-06T02:41:22;11.30;;;4.97;;
18304;SDS011;9278;52.156;21.048;2023-04-06T02:43:52;10.57;;;4.47;;
18304;SDS011;9278;52.156;21.048;2023-04-06T02:46:31;14.23;;;5.10;;
18304;SDS011;9278;52.156;21.048;2023-04-06T02:49:01;11.83;;;4.57;;
18304;SDS011;9278;52.156;21.048;2023-04-06T02:51:32;13.30;;;4.87;;
18304;SDS011;9278;52.156;21.048;2023-04-06T02:54:14;12.47;;;4.93;;
18304;SDS011;9278;52.156;21.048;2023-04-06T02:56:43;11.33;;;5.07;;
18304;SDS011;9278;52.156;21.048;2023-04-06T02:59:13;11.30;;;5.30;;
18304;SDS011;9278;52.156;21.048;2023-04-06T03:01:49;11.73;;;5.07;;
18304;SDS011;9278;52.156;21.048;2023-04-06T03:04:17;13.60;;;5.20;;
18304;SDS011;9278;52.156;21.048;2023-04-06T03:06:46;19.00;;;5.60;;
18304;SDS011;9278;52.156;21.048;2023-04-06T03:09:23;13.30;;;5.03;;
18304;SDS011;9278;52.156;21.048;2023-04-06T03:11:51;14.07;;;5.27;;
18304;SDS011;9278;52.156;21.048;2023-04-06T03:14:22;13.73;;;5.13;;
18304;SDS011;9278;52.156;21.048;2023-04-06T03:16:50;10.60;;;5.00;;
18304;SDS011;9278;52.156;21.048;2023-04-06T03:19:21;18.43;;;5.63;;
18304;SDS011;9278;52.156;21.048;2023-04-06T03:21:50;15.00;;;5.70;;
18304;SDS011;9278;52.156;21.048;2023-04-06T03:24:19;13.30;;;5.63;;
18304;SDS011;9278;52.156;21.048;2023-04-06T03:26:47;13.77;;;5.80;;
18304;SDS011;9278;52.156;21.048;2023-04-06T03:29:17;21.70;;;6.93;;
18304;SDS011;9278;52.156;21.048;2023-04-06T03:31:46;15.90;;;6.27;;
18304;SDS011;9278;52.156;21.048;2023-04-06T03:34:37;14.40;;;5.73;;
18304;SDS011;9278;52.156;21.048;2023-04-06T03:37:07;14.07;;;5.80;;
18304;SDS011;9278;52.156;21.048;2023-04-06T03:39:43;14.67;;;5.27;;
18304;SDS011;9278;52.156;21.048;2023-04-06T03:42:16;15.40;;;6.40;;
18304;SDS011;9278;52.156;21.048;2023-04-06T03:44:50;13.90;;;5.57;;
18304;SDS011;9278;52.156;21.048;2023-04-06T03:47:20;17.37;;;5.90;;
18304;SDS011;9278;52.156;21.048;2023-04-06T03:49:50;16.80;;;5.30;;
18304;SDS011;9278;52.156;21.048;2023-04-06T03:52:18;17.37;;;6.33;;
18304;SDS011;9278;52.156;21.048;2023-04-06T03:54:50;19.27;;;6.57;;
18304;SDS011;9278;52.156;21.048;2023-04-06T03:57:19;15.67;;;6.03;;
18304;SDS011;9278;52.156;21.048;2023-04-06T03:59:47;15.33;;;5.87;;
18304;SDS011;9278;52.156;21.048;2023-04-06T04:02:15;16.00;;;5.60;;
18304;SDS011;9278;52.156;21.048;2023-04-06T04:04:44;14.40;;;5.70;;
18304;SDS011;9278;52.156;21.048;2023-04-06T04:07:13;16.83;;;6.17;;
18304;SDS011;9278;52.156;21.048;2023-04-06T04:09:41;14.87;;;5.53;;
18304;SDS011;9278;52.156;21.048;2023-04-06T04:12:10;13.30;;;5.60;;
18304;SDS011;9278;52.156;21.048;2023-04-06T04:14:38;16.07;;;5.30;;
18304;SDS011;9278;52.156;21.048;2023-04-06T04:17:06;20.23;;;6.80;;
18304;SDS011;9278;52.156;21.048;2023-04-06T04:19:35;14.07;;;6.07;;
18304;SDS011;9278;52.156;21.048;2023-04-06T04:22:04;13.07;;;5.77;;
18304;SDS011;9278;52.156;21.048;2023-04-06T04:24:37;14.63;;;6.27;;
18304;SDS011;9278;52.156;21.048;2023-04-06T04:27:05;16.20;;;6.80;;
18304;SDS011;9278;52.156;21.048;2023-04-06T04:29:34;15.30;;;6.57;;
18304;SDS011;9278;52.156;21.048;2023-04-06T04:32:06;15.23;;;6.63;;
18304;SDS011;9278;52.156;21.048;2023-04-06T04:34:35;17.77;;;7.03;;
18304;SDS011;9278;52.156;21.048;2023-04-06T04:37:10;16.93;;;6.27;;
18304;SDS011;9278;52.156;21.048;2023-04-06T04:39:52;16.77;;;6.50;;
18304;SDS011;9278;52.156;21.048;2023-04-06T04:42:20;17.23;;;6.63;;
18304;SDS011;9278;52.156;21.048;2023-04-06T04:44:51;20.40;;;7.10;;
18304;SDS011;9278;52.156;21.048;2023-04-06T04:47:31;18.47;;;6.70;;
18304;SDS011;9278;52.156;21.048;2023-04-06T04:49:59;17.27;;;6.63;;
18304;SDS011;9278;52.156;21.048;2023-04-06T04:52:30;14.07;;;5.80;;
18304;SDS011;9278;52.156;21.048;2023-04-06T04:55:10;15.87;;;7.00;;
18304;SDS011;9278;52.156;21.048;2023-04-06T04:57:40;17.53;;;7.37;;
18304;SDS011;9278;52.156;21.048;2023-04-06T05:00:09;14.13;;;5.83;;
18304;SDS011;9278;52.156;21.048;2023-04-06T05:02:41;16.43;;;6.20;;
18304;SDS011;9278;52.156;21.048;2023-04-06T05:05:14;17.63;;;6.63;;
18304;SDS011;9278;52.156;21.048;2023-04-06T05:07:44;12.77;;;5.73;;
18304;SDS011;9278;52.156;21.048;2023-04-06T05:10:32;14.77;;;5.47;;
18304;SDS011;9278;52.156;21.048;2023-04-06T05:13:02;16.20;;;5.43;;
18304;SDS011;9278;52.156;21.048;2023-04-06T05:15:31;14.00;;;5.07;;
18304;SDS011;9278;52.156;21.048;2023-04-06T05:18:08;15.93;;;5.20;;
18304;SDS011;9278;52.156;21.048;2023-04-06T05:20:38;13.87;;;5.90;;
18304;SDS011;9278;52.156;21.048;2023-04-06T05:23:08;14.53;;;5.47;;
18304;SDS011;9278;52.156;21.048;2023-04-06T05:25:36;22.10;;;5.27;;
18304;SDS011;9278;52.156;21.048;2023-04-06T05:28:13;12.07;;;4.47;;
18304;SDS011;9278;52.156;21.048;2023-04-06T05:30:43;9.97;;;4.50;;
18304;SDS011;9278;52.156;21.048;2023-04-06T05:33:13;12.40;;;5.67;;
18304;SDS011;9278;52.156;21.048;2023-04-06T05:35:59;14.17;;;5.07;;
18304;SDS011;9278;52.156;21.048;2023-04-06T05:38:29;15.17;;;5.40;;
18304;SDS011;9278;52.156;21.048;2023-04-06T05:41:09;14.50;;;5.20;;
18304;SDS011;9278;52.156;21.048;2023-04-06T05:43:39;13.47;;;4.90;;
18304;SDS011;9278;52.156;21.048;2023-04-06T05:46:07;15.03;;;4.13;;
18304;SDS011;9278;52.156;21.048;2023-04-06T05:48:35;12.43;;;4.93;;
18304;SDS011;9278;52.156;21.048;2023-04-06T05:51:03;9.80;;;4.37;;
18304;SDS011;9278;52.156;21.048;2023-04-06T05:53:43;10.33;;;4.90;;
18304;SDS011;9278;52.156;21.048;2023-04-06T05:56:11;10.97;;;4.83;;
18304;SDS011;9278;52.156;21.048;2023-04-06T05:58:40;10.83;;;4.70;;
18304;SDS011;9278;52.156;21.048;2023-04-06T06:01:11;11.33;;;3.53;;
18304;SDS011;9278;52.156;21.048;2023-04-06T06:03:44;9.30;;;5.00;;
18304;SDS011;9278;52.156;21.048;2023-04-06T06:06:13;11.40;;;4.70;;
18304;SDS011;9278;52.156;21.048;2023-04-06T06:09:06;9.17;;;4.60;;
18304;SDS011;9278;52.156;21.048;2023-04-06T06:11:40;11.10;;;4.50;;
18304;SDS011;9278;52.156;21.048;2023-04-06T06:14:12;8.27;;;4.20;;
18304;SDS011;9278;52.156;21.048;2023-04-06T06:16:41;6.37;;;3.70;;
18304;SDS011;9278;52.156;21.048;2023-04-06T06:19:12;9.73;;;3.60;;
18304;SDS011;9278;52.156;21.048;2023-04-06T06:21:41;10.67;;;3.80;;
18304;SDS011;9278;52.156;21.048;2023-04-06T06:24:11;12.73;;;4.87;;
18304;SDS011;9278;52.156;21.048;2023-04-06T06:26:39;9.73;;;4.27;;
18304;SDS011;9278;52.156;21.048;2023-04-06T06:29:09;10.37;;;4.07;;
18304;SDS011;9278;52.156;21.048;2023-04-06T06:31:38;10.53;;;4.00;;
18304;SDS011;9278;52.156;21.048;2023-04-06T06:34:07;47.63;;;5.43;;
18304;SDS011;9278;52.156;21.048;2023-04-06T06:36:36;8.90;;;4.03;;
18304;SDS011;9278;52.156;21.048;2023-04-06T06:39:07;11.67;;;3.87;;
18304;SDS011;9278;52.156;21.048;2023-04-06T06:41:38;7.13;;;3.40;;
18304;SDS011;9278;52.156;21.048;2023-04-06T06:44:06;8.40;;;3.63;;
18304;SDS011;9278;52.156;21.048;2023-04-06T06:46:35;8.80;;;3.77;;
18304;SDS011;9278;52.156;21.048;2023-04-06T06:49:05;11.20;;;4.10;;
18304;SDS011;9278;52.156;21.048;2023-04-06T06:51:33;5.10;;;3.00;;
18304;SDS011;9278;52.156;21.048;2023-04-06T06:54:01;8.17;;;3.73;;
18304;SDS011;9278;52.156;21.048;2023-04-06T06:56:30;8.23;;;3.07;;
18304;SDS011;9278;52.156;21.048;2023-04-06T06:59:00;7.77;;;3.00;;
18304;SDS011;9278;52.156;21.048;2023-04-06T07:01:28;7.87;;;3.30;;
18304;SDS011;9278;52.156;21.048;2023-04-06T07:03:56;8.53;;;3.60;;
18304;SDS011;9278;52.156;21.048;2023-04-06T07:06:25;12.03;;;3.50;;
18304;SDS011;9278;52.156;21.048;2023-04-06T07:08:53;5.70;;;2.57;;
18304;SDS011;9278;52.156;21.048;2023-04-06T07:11:22;6.67;;;3.53;;
18304;SDS011;9278;52.156;21.048;2023-04-06T07:13:51;5.60;;;2.70;;
18304;SDS011;9278;52.156;21.048;2023-04-06T07:16:20;6.00;;;3.00;;
18304;SDS011;9278;52.156;21.048;2023-04-06T07:18:49;11.00;;;3.30;;
18304;SDS011;9278;52.156;21.048;2023-04-06T07:21:18;4.90;;;2.40;;
18304;SDS011;9278;52.156;21.048;2023-04-06T07:23:46;5.57;;;3.20;;
18304;SDS011;9278;52.156;21.048;2023-04-06T07:26:15;4.87;;;2.70;;
18304;SDS011;9278;52.156;21.048;2023-04-06T07:28:43;8.30;;;3.70;;
18304;SDS011;9278;52.156;21.048;2023-04-06T07:31:12;8.27;;;3.43;;
18304;SDS011;9278;52.156;21.048;2023-04-06T07:33:42;10.87;;;3.13;;
18304;SDS011;9278;52.156;21.048;2023-04-06T07:36:11;8.13;;;3.27;;
18304;SDS011;9278;52.156;21.048;2023-04-06T07:38:39;9.23;;;3.30;;
18304;SDS011;9278;52.156;21.048;2023-04-06T07:41:08;10.57;;;3.97;;
18304;SDS011;9278;52.156;21.048;2023-04-06T07:43:36;6.53;;;2.93;;
18304;SDS011;9278;52.156;21.048;2023-04-06T07:46:06;9.87;;;4.00;;
18304;SDS011;9278;52.156;21.048;2023-04-06T07:48:36;5.53;;;2.67;;
18304;SDS011;9278;52.156;21.048;2023-04-06T07:51:06;9.10;;;3.20;;
18304;SDS011;9278;52.156;21.048;2023-04-06T07:53:38;5.20;;;2.80;;
18304;SDS011;9278;52.156;21.048;2023-04-06T07:56:06;7.23;;;3.30;;
18304;SDS011;9278;52.156;21.048;2023-04-06T07:58:35;6.47;;;3.10;;
18304;SDS011;9278;52.156;21.048;2023-04-06T08:01:03;5.90;;;3.30;;
18304;SDS011;9278;52.156;21.048;2023-04-06T08:03:33;9.83;;;3.60;;
18304;SDS011;9278;52.156;21.048;2023-04-06T08:06:02;9.80;;;3.50;;
18304;SDS011;9278;52.156;21.048;2023-04-06T08:08:32;23.47;;;3.27;;
18304;SDS011;9278;52.156;21.048;2023-04-06T08:11:00;6.10;;;3.10;;
18304;SDS011;9278;52.156;21.048;2023-04-06T08:13:29;7.07;;;3.97;;
18304;SDS011;9278;52.156;21.048;2023-04-06T08:15:57;5.57;;;2.87;;
18304;SDS011;9278;52.156;21.048;2023-04-06T08:18:26;6.33;;;3.00;;
18304;SDS011;9278;52.156;21.048;2023-04-06T08:20:56;6.47;;;2.93;;
18304;SDS011;9278;52.156;21.048;2023-04-06T08:23:24;6.23;;;3.53;;
18304;SDS011;9278;52.156;21.048;2023-04-06T08:25:54;7.17;;;3.50;;
18304;SDS011;9278;52.156;21.048;2023-04-06T08:28:22;8.87;;;3.57;;
18304;SDS011;9278;52.156;21.048;2023-04-06T08:30:51;8.30;;;3.47;;
18304;SDS011;9278;52.156;21.048;2023-04-06T08:33:19;7.50;;;3.73;;
18304;SDS011;9278;52.156;21.048;2023-04-06T08:35:47;8.10;;;3.87;;
18304;SDS011;9278;52.156;21.048;2023-04-06T08:38:15;7.57;;;3.87;;
18304;SDS011;9278;52.156;21.048;2023-04-06T08:40:44;7.82;;;3.13;;
18304;SDS011;9278;52.156;21.048;2023-04-06T08:43:15;7.83;;;3.90;;
18304;SDS011;9278;52.156;21.048;2023-04-06T08:45:47;9.00;;;3.37;;
18304;SDS011;9278;52.156;21.048;2023-04-06T08:48:15;14.70;;;3.80;;
18304;SDS011;9278;52.156;21.048;2023-04-06T08:50:45;8.93;;;3.43;;
18304;SDS011;9278;52.156;21.048;2023-04-06T08:53:13;6.20;;;2.97;;
18304;SDS011;9278;52.156;21.048;2023-04-06T08:55:42;9.10;;;3.33;;
18304;SDS011;9278;52.156;21.048;2023-04-06T08:58:11;6.90;;;3.60;;
18304;SDS011;9278;52.156;21.048;2023-04-06T09:00:58;13.47;;;3.53;;
18304;SDS011;9278;52.156;21.048;2023-04-06T09:03:28;7.53;;;3.47;;
18304;SDS011;9278;52.156;21.048;2023-04-06T09:05:59;10.23;;;3.90;;
18304;SDS011;9278;52.156;21.048;2023-04-06T09:08:27;5.13;;;3.03;;
18304;SDS011;9278;52.156;21.048;2023-04-06T09:10:55;6.90;;;3.07;;
18304;SDS011;9278;52.156;21.048;2023-04-06T09:13:24;6.33;;;3.60;;
18304;SDS011;9278;52.156;21.048;2023-04-06T09:16:00;7.93;;;3.23;;
18304;SDS011;9278;52.156;21.048;2023-04-06T09:18:29;12.40;;;3.67;;
18304;SDS011;9278;52.156;21.048;2023-04-06T09:20:58;28.37;;;4.60;;
18304;SDS011;9278;52.156;21.048;2023-04-06T09:23:28;5.40;;;2.80;;
18304;SDS011;9278;52.156;21.048;2023-04-06T09:26:04;5.30;;;2.37;;
18304;SDS011;9278;52.156;21.048;2023-04-06T09:28:46;4.50;;;2.47;;
18304;SDS011;9278;52.156;21.048;2023-04-06T09:31:22;6.80;;;3.30;;
18304;SDS011;9278;52.156;21.048;2023-04-06T09:33:53;6.80;;;3.53;;
18304;SDS011;9278;52.156;21.048;2023-04-06T09:36:29;8.03;;;4.30;;
18304;SDS011;9278;52.156;21.048;2023-04-06T09:38:59;10.63;;;4.70;;
18304;SDS011;9278;52.156;21.048;2023-04-06T09:41:28;13.97;;;4.83;;
18304;SDS011;9278;52.156;21.048;2023-04-06T09:44:04;8.20;;;4.73;;
18304;SDS011;9278;52.156;21.048;2023-04-06T09:46:35;10.03;;;5.40;;
18304;SDS011;9278;52.156;21.048;2023-04-06T09:49:25;8.60;;;4.17;;
18304;SDS011;9278;52.156;21.048;2023-04-06T09:51:56;10.40;;;5.03;;
18304;SDS011;9278;52.156;21.048;2023-04-06T09:54:28;9.07;;;4.50;;
18304;SDS011;9278;52.156;21.048;2023-04-06T09:56:58;10.67;;;4.63;;
18304;SDS011;9278;52.156;21.048;2023-04-06T09:59:47;12.00;;;4.90;;
18304;SDS011;9278;52.156;21.048;2023-04-06T10:02:24;10.53;;;4.90;;
18304;SDS011;9278;52.156;21.048;2023-04-06T10:05:02;8.93;;;5.60;;
18304;SDS011;9278;52.156;21.048;2023-04-06T10:07:36;7.63;;;4.10;;
18304;SDS011;9278;52.156;21.048;2023-04-06T10:10:24;8.07;;;4.63;;
18304;SDS011;9278;52.156;21.048;2023-04-06T10:12:53;8.20;;;5.23;;
18304;SDS011;9278;52.156;21.048;2023-04-06T10:15:22;7.80;;;4.57;;
18304;SDS011;9278;52.156;21.048;2023-04-06T10:17:52;12.10;;;4.93;;
18304;SDS011;9278;52.156;21.048;2023-04-06T10:20:21;11.83;;;4.97;;
18304;SDS011;9278;52.156;21.048;2023-04-06T10:22:53;12.17;;;5.77;;
18304;SDS011;9278;52.156;21.048;2023-04-06T10:25:27;13.03;;;6.80;;
18304;SDS011;9278;52.156;21.048;2023-04-06T10:27:59;14.00;;;6.90;;
18304;SDS011;9278;52.156;21.048;2023-04-06T10:30:28;14.93;;;7.87;;
18304;SDS011;9278;52.156;21.048;2023-04-06T10:32:58;14.53;;;7.60;;
18304;SDS011;9278;52.156;21.048;2023-04-06T10:35:36;13.60;;;6.83;;
18304;SDS011;9278;52.156;21.048;2023-04-06T10:38:05;14.40;;;7.70;;
18304;SDS011;9278;52.156;21.048;2023-04-06T10:40:35;14.47;;;7.27;;
18304;SDS011;9278;52.156;21.048;2023-04-06T10:43:08;15.10;;;7.70;;
18304;SDS011;9278;52.156;21.048;2023-04-06T10:45:38;12.07;;;6.70;;
18304;SDS011;9278;52.156;21.048;2023-04-06T10:48:14;12.17;;;6.33;;
18304;SDS011;9278;52.156;21.048;2023-04-06T10:50:44;10.20;;;6.20;;
18304;SDS011;9278;52.156;21.048;2023-04-06T10:53:20;12.23;;;5.87;;
18304;SDS011;9278;52.156;21.048;2023-04-06T10:55:49;10.53;;;5.37;;
18304;SDS011;9278;52.156;21.048;2023-04-06T10:58:17;12.07;;;5.83;;
18304;SDS011;9278;52.156;21.048;2023-04-06T11:00:46;11.10;;;5.13;;
18304;SDS011;9278;52.156;21.048;2023-04-06T11:03:18;12.80;;;7.00;;
18304;SDS011;9278;52.156;21.048;2023-04-06T11:05:47;14.83;;;7.87;;
18304;SDS011;9278;52.156;21.048;2023-04-06T11:08:24;13.57;;;8.20;;
18304;SDS011;9278;52.156;21.048;2023-04-06T11:11:03;12.00;;;7.47;;
18304;SDS011;9278;52.156;21.048;2023-04-06T11:13:36;13.03;;;7.87;;
18304;SDS011;9278;52.156;21.048;2023-04-06T11:16:12;11.67;;;6.90;;
18304;SDS011;9278;52.156;21.048;2023-04-06T11:18:52;12.70;;;6.63;;
18304;SDS011;9278;52.156;21.048;2023-04-06T11:21:32;9.57;;;5.87;;
18304;SDS011;9278;52.156;21.048;2023-04-06T11:24:08;18.10;;;8.23;;
18304;SDS011;9278;52.156;21.048;2023-04-06T11:26:38;14.00;;;7.80;;
18304;SDS011;9278;52.156;21.048;2023-04-06T11:29:07;15.47;;;7.17;;
18304;SDS011;9278;52.156;21.048;2023-04-06T11:31:42;14.77;;;7.00;;
18304;SDS011;9278;52.156;21.048;2023-04-06T11:34:16;17.80;;;8.23;;
18304;SDS011;9278;52.156;21.048;2023-04-06T11:36:45;14.07;;;8.53;;
18304;SDS011;9278;52.156;21.048;2023-04-06T11:39:18;15.10;;;7.93;;
18304;SDS011;9278;52.156;21.048;2023-04-06T11:41:48;13.07;;;7.83;;
18304;SDS011;9278;52.156;21.048;2023-04-06T11:44:28;12.60;;;7.93;;
18304;SDS011;9278;52.156;21.048;2023-04-06T11:46:59;9.53;;;4.73;;
18304;SDS011;9278;52.156;21.048;2023-04-06T11:49:29;12.63;;;7.83;;
18304;SDS011;9278;52.156;21.048;2023-04-06T11:51:59;13.50;;;6.70;;
18304;SDS011;9278;52.156;21.048;2023-04-06T11:54:31;14.30;;;7.43;;
18304;SDS011;9278;52.156;21.048;2023-04-06T11:57:01;11.37;;;6.33;;
18304;SDS011;9278;52.156;21.048;2023-04-06T11:59:30;16.50;;;7.00;;
18304;SDS011;9278;52.156;21.048;2023-04-06T12:01:59;9.63;;;5.97;;
18304;SDS011;9278;52.156;21.048;2023-04-06T12:04:30;8.67;;;5.23;;
18304;SDS011;9278;52.156;21.048;2023-04-06T12:06:58;8.03;;;5.10;;
18304;SDS011;9278;52.156;21.048;2023-04-06T12:09:27;11.17;;;5.93;;
18304;SDS011;9278;52.156;21.048;2023-04-06T12:11:55;10.43;;;5.43;;
18304;SDS011;9278;52.156;21.048;2023-04-06T12:14:24;16.17;;;5.70;;
18304;SDS011;9278;52.156;21.048;2023-04-06T12:16:52;5.57;;;3.97;;
18304;SDS011;9278;52.156;21.048;2023-04-06T12:19:20;11.07;;;5.77;;
18304;SDS011;9278;52.156;21.048;2023-04-06T12:21:53;10.40;;;5.67;;
18304;SDS011;9278;52.156;21.048;2023-04-06T12:24:23;9.40;;;5.43;;
18304;SDS011;9278;52.156;21.048;2023-04-06T12:26:51;9.73;;;5.43;;
18304;SDS011;9278;52.156;21.048;2023-04-06T12:29:35;8.20;;;4.90;;
18304;SDS011;9278;52.156;21.048;2023-04-06T12:32:03;8.17;;;4.60;;
18304;SDS011;9278;52.156;21.048;2023-04-06T12:34:32;11.87;;;5.03;;
18304;SDS011;9278;52.156;21.048;2023-04-06T12:37:01;7.77;;;4.53;;
18304;SDS011;9278;52.156;21.048;2023-04-06T12:39:30;9.33;;;6.20;;
18304;SDS011;9278;52.156;21.048;2023-04-06T12:41:58;12.47;;;6.80;;
18304;SDS011;9278;52.156;21.048;2023-04-06T12:44:27;14.07;;;6.37;;
18304;SDS011;9278;52.156;21.048;2023-04-06T12:46:56;11.33;;;5.73;;
18304;SDS011;9278;52.156;21.048;2023-04-06T12:49:25;12.77;;;6.00;;
18304;SDS011;9278;52.156;21.048;2023-04-06T12:51:55;11.53;;;5.77;;
18304;SDS011;9278;52.156;21.048;2023-04-06T12:54:24;11.43;;;6.23;;
18304;SDS011;9278;52.156;21.048;2023-04-06T12:56:53;11.83;;;6.60;;
18304;SDS011;9278;52.156;21.048;2023-04-06T12:59:22;9.33;;;5.63;;
18304;SDS011;9278;52.156;21.048;2023-04-06T13:01:51;9.13;;;4.80;;
18304;SDS011;9278;52.156;21.048;2023-04-06T13:04:20;13.13;;;5.90;;
18304;SDS011;9278;52.156;21.048;2023-04-06T13:06:48;11.33;;;5.63;;
18304;SDS011;9278;52.156;21.048;2023-04-06T13:09:16;9.87;;;5.50;;
18304;SDS011;9278;52.156;21.048;2023-04-06T13:11:46;10.70;;;6.03;;
18304;SDS011;9278;52.156;21.048;2023-04-06T13:14:14;9.40;;;5.67;;
18304;SDS011;9278;52.156;21.048;2023-04-06T13:16:42;11.13;;;5.90;;
18304;SDS011;9278;52.156;21.048;2023-04-06T13:19:11;10.23;;;5.40;;
18304;SDS011;9278;52.156;21.048;2023-04-06T13:21:39;9.23;;;4.97;;
18304;SDS011;9278;52.156;21.048;2023-04-06T13:24:08;9.23;;;5.03;;
18304;SDS011;9278;52.156;21.048;2023-04-06T13:26:36;10.23;;;5.17;;
18304;SDS011;9278;52.156;21.048;2023-04-06T13:29:06;11.07;;;6.10;;
18304;SDS011;9278;52.156;21.048;2023-04-06T13:31:34;14.37;;;6.33;;
18304;SDS011;9278;52.156;21.048;2023-04-06T13:34:03;8.67;;;5.07;;
18304;SDS011;9278;52.156;21.048;2023-04-06T13:36:31;12.00;;;6.00;;
18304;SDS011;9278;52.156;21.048;2023-04-06T13:38:59;8.87;;;5.27;;
18304;SDS011;9278;52.156;21.048;2023-04-06T13:41:28;12.87;;;6.57;;
18304;SDS011;9278;52.156;21.048;2023-04-06T13:43:56;10.70;;;5.57;;
18304;SDS011;9278;52.156;21.048;2023-04-06T13:46:26;9.27;;;5.20;;
18304;SDS011;9278;52.156;21.048;2023-04-06T13:48:54;13.43;;;5.30;;
18304;SDS011;9278;52.156;21.048;2023-04-06T13:51:23;10.37;;;6.60;;
18304;SDS011;9278;52.156;21.048;2023-04-06T13:53:52;9.47;;;5.07;;
18304;SDS011;9278;52.156;21.048;2023-04-06T13:56:21;11.40;;;5.63;;
18304;SDS011;9278;52.156;21.048;2023-04-06T13:58:49;11.53;;;6.60;;
18304;SDS011;9278;52.156;21.048;2023-04-06T14:01:20;11.33;;;6.30;;
18304;SDS011;9278;52.156;21.048;2023-04-06T14:03:50;10.77;;;5.67;;
18304;SDS011;9278;52.156;21.048;2023-04-06T14:06:19;12.40;;;5.57;;
18304;SDS011;9278;52.156;21.048;2023-04-06T14:08:57;10.33;;;5.43;;
18304;SDS011;9278;52.156;21.048;2023-04-06T14:11:26;10.23;;;6.53;;
18304;SDS011;9278;52.156;21.048;2023-04-06T14:13:54;11.73;;;4.90;;
18304;SDS011;9278;52.156;21.048;2023-04-06T14:16:24;11.57;;;5.73;;
18304;SDS011;9278;52.156;21.048;2023-04-06T14:18:54;8.17;;;4.70;;
18304;SDS011;9278;52.156;21.048;2023-04-06T14:21:24;8.17;;;4.47;;
18304;SDS011;9278;52.156;21.048;2023-04-06T14:23:52;11.43;;;6.80;;
18304;SDS011;9278;52.156;21.048;2023-04-06T14:26:24;12.17;;;6.33;;
18304;SDS011;9278;52.156;21.048;2023-04-06T14:28:53;9.47;;;5.37;;
18304;SDS011;9278;52.156;21.048;2023-04-06T14:31:22;11.73;;;5.17;;
18304;SDS011;9278;52.156;21.048;2023-04-06T14:33:50;9.90;;;5.50;;
18304;SDS011;9278;52.156;21.048;2023-04-06T14:36:20;11.97;;;6.17;;
18304;SDS011;9278;52.156;21.048;2023-04-06T14:38:48;15.33;;;6.40;;
18304;SDS011;9278;52.156;21.048;2023-04-06T14:41:16;11.53;;;5.67;;
18304;SDS011;9278;52.156;21.048;2023-04-06T14:43:46;12.00;;;5.40;;
18304;SDS011;9278;52.156;21.048;2023-04-06T14:46:14;9.80;;;5.60;;
18304;SDS011;9278;52.156;21.048;2023-04-06T14:48:43;11.40;;;5.93;;
18304;SDS011;9278;52.156;21.048;2023-04-06T14:51:12;9.40;;;5.30;;
18304;SDS011;9278;52.156;21.048;2023-04-06T14:53:42;9.23;;;5.17;;
18304;SDS011;9278;52.156;21.048;2023-04-06T14:56:11;9.37;;;4.53;;
18304;SDS011;9278;52.156;21.048;2023-04-06T14:58:39;15.13;;;6.30;;
18304;SDS011;9278;52.156;21.048;2023-04-06T15:01:07;10.83;;;6.57;;